Portada
METAR-TAF:

METAR-TAF

Aeroports :

Pruniers

Romorantin-Lanthenay, França

latitud: 47-19N, longitud: 001-41E, altitud: 85 m

Observació

L'informe es va fer fa 32 minuts, a les 23:00 UTC
Vent 9 kt del Sud-Oest, variant entre Sud i Oest/Sud-Oest
Temperatura 9°C
Humitat 93%
Pressió 987 hPa
Visibilitat: 4800 m
pluja

METAR: LFYR 122300Z AUTO 22009KT 190V250 9999 4800 -RA SCT014/// SCT019/// BKN032/// ///CB 09/08 Q0987

Hora: 00:32 (23:32 UTC)


TAF: manca

Observacions i pronòstics meteorològics de més de 4000 aeroports (METAR i TAF).

Les estacions disponibles són els punts grocs i vermells al mapa.

Posi el ratolí al punt desitjat per veure el nom de l'estació.

Feu clic per veure les observacions i els pronòstics meteorològics.

Per canviar el mapa: feu clic els botons verds amb una creu de color negre per apropar; al botó verd amb un guió per allunyar la imatge; o en les fletxes verdes per a mapes adjacents.


METAR-TAF: